createdAt,value
2023-07-10T00:00:12.270Z,35.44
2023-07-10T00:01:12.312Z,37.16
2023-07-10T00:02:12.296Z,36.79
2023-07-10T00:03:12.465Z,38.49
2023-07-10T00:04:12.294Z,40.48
2023-07-10T00:05:12.341Z,36.59
2023-07-10T00:06:12.319Z,38.03
2023-07-10T00:07:12.311Z,38.87
2023-07-10T00:08:12.300Z,36.87
2023-07-10T00:09:12.303Z,40.24
2023-07-10T00:10:12.333Z,40.10
2023-07-10T00:11:12.286Z,39.84
2023-07-10T00:12:12.306Z,40.69
2023-07-10T00:13:12.280Z,38.69
2023-07-10T00:14:12.419Z,40.15
2023-07-10T00:15:12.348Z,41.76
2023-07-10T00:16:12.397Z,40.60
2023-07-10T00:17:13.156Z,42.37
2023-07-10T00:18:12.289Z,39.99
2023-07-10T00:19:12.319Z,43.22
2023-07-10T00:20:12.308Z,41.81
2023-07-10T00:21:13.147Z,40.58
2023-07-10T00:22:12.323Z,42.33
2023-07-10T00:23:12.342Z,43.70
2023-07-10T00:24:12.344Z,43.56
2023-07-10T00:25:12.370Z,42.85
2023-07-10T00:26:12.354Z,44.87
2023-07-10T00:27:12.356Z,45.28
2023-07-10T00:28:12.363Z,41.66
2023-07-10T00:29:12.353Z,45.62
2023-07-10T00:30:12.350Z,43.67
2023-07-10T00:31:12.424Z,44.98
2023-07-10T00:32:12.381Z,42.62
2023-07-10T00:33:12.374Z,41.63
2023-07-10T00:34:12.398Z,44.25
2023-07-10T00:35:12.425Z,43.99
2023-07-10T00:36:12.423Z,46.75
2023-07-10T00:37:12.401Z,45.00
2023-07-10T00:38:12.405Z,44.93
2023-07-10T00:39:12.434Z,45.41
2023-07-10T00:40:12.448Z,48.09
2023-07-10T00:41:12.445Z,46.66
2023-07-10T00:42:12.475Z,49.55
2023-07-10T00:43:12.459Z,48.19
2023-07-10T00:44:12.475Z,47.51
2023-07-10T00:45:12.547Z,48.21
2023-07-10T00:46:12.496Z,46.95
2023-07-10T00:47:12.511Z,46.78
2023-07-10T00:48:12.497Z,50.78
2023-07-10T00:49:12.486Z,46.10
2023-07-10T00:50:12.473Z,46.96
2023-07-10T00:51:12.512Z,50.64
2023-07-10T00:52:12.497Z,47.71
2023-07-10T00:53:12.521Z,49.47
2023-07-10T00:54:12.508Z,50.07
2023-07-10T00:55:12.524Z,49.13
2023-07-10T00:56:12.523Z,50.42
2023-07-10T00:57:12.527Z,51.06
2023-07-10T00:58:27.985Z,51.09
2023-07-10T00:59:13.533Z,51.34
2023-07-10T01:00:12.520Z,51.18
2023-07-10T01:01:12.534Z,51.28
2023-07-10T01:02:12.516Z,48.24
2023-07-10T01:03:12.532Z,53.84
2023-07-10T01:04:12.524Z,51.86
2023-07-10T01:05:12.484Z,51.33
2023-07-10T01:06:12.489Z,52.01
2023-07-10T01:07:12.445Z,52.60
2023-07-10T01:08:12.458Z,53.17
2023-07-10T01:09:12.457Z,52.26
2023-07-10T01:10:12.450Z,52.57
2023-07-10T01:11:12.452Z,54.38
2023-07-10T01:12:12.427Z,50.57
2023-07-10T01:13:12.450Z,54.24
2023-07-10T01:14:12.406Z,51.05
2023-07-10T01:15:12.390Z,52.78
2023-07-10T01:16:12.433Z,55.70
2023-07-10T01:17:12.397Z,52.24
2023-07-10T01:18:12.421Z,51.73
2023-07-10T01:19:12.375Z,54.52
2023-07-10T01:20:12.390Z,53.02
2023-07-10T01:21:12.387Z,53.72
2023-07-10T01:22:12.380Z,51.01
2023-07-10T01:23:12.375Z,54.66
2023-07-10T01:24:12.370Z,51.49
2023-07-10T01:25:12.346Z,55.57
2023-07-10T01:26:12.347Z,54.84
2023-07-10T01:27:12.329Z,52.07
2023-07-10T01:28:12.307Z,56.85
2023-07-10T01:29:12.306Z,49.98
2023-07-10T01:30:12.338Z,55.06
2023-07-10T01:31:12.359Z,55.26
2023-07-10T01:32:12.309Z,57.62
2023-07-10T01:33:12.299Z,54.03
2023-07-10T01:34:12.281Z,57.40
2023-07-10T01:35:12.330Z,55.38
2023-07-10T01:36:12.344Z,54.58
2023-07-10T01:37:12.368Z,55.82
2023-07-10T01:38:12.333Z,53.02
2023-07-10T01:39:12.388Z,56.72
2023-07-10T01:40:12.404Z,56.52
2023-07-10T01:41:12.434Z,56.21
2023-07-10T01:42:12.431Z,55.18
2023-07-10T01:43:12.476Z,59.21
2023-07-10T01:44:12.449Z,57.23
2023-07-10T01:45:12.459Z,56.30
2023-07-10T01:46:12.496Z,57.16
2023-07-10T01:47:12.540Z,58.97
2023-07-10T01:48:12.717Z,58.85
2023-07-10T01:49:12.544Z,55.32
2023-07-10T01:50:12.594Z,56.60
2023-07-10T01:51:12.556Z,57.53
2023-07-10T01:52:12.568Z,57.32
2023-07-10T01:53:12.623Z,59.54
2023-07-10T01:54:12.619Z,59.02
2023-07-10T01:55:12.690Z,55.34
2023-07-10T01:56:12.670Z,59.16
2023-07-10T01:57:12.705Z,57.48
2023-07-10T01:58:12.715Z,59.11
2023-07-10T01:59:12.733Z,57.85
2023-07-10T02:00:12.739Z,59.78
2023-07-10T02:01:12.808Z,58.42
2023-07-10T02:02:12.819Z,60.31
2023-07-10T02:03:12.843Z,61.69
2023-07-10T02:04:12.805Z,61.44
2023-07-10T02:05:12.838Z,58.64
2023-07-10T02:06:12.891Z,61.29
2023-07-10T02:07:12.870Z,61.93
2023-07-10T02:08:12.880Z,60.07
2023-07-10T02:09:12.898Z,62.71
2023-07-10T02:10:12.957Z,59.66
2023-07-10T02:11:13.112Z,63.45
2023-07-10T02:12:12.958Z,62.34
2023-07-10T02:13:13.009Z,60.77
2023-07-10T02:14:13.062Z,64.53
2023-07-10T02:15:13.021Z,59.30
2023-07-10T02:16:13.048Z,63.76
2023-07-10T02:17:13.137Z,63.95
2023-07-10T02:18:13.138Z,62.03
2023-07-10T02:19:13.116Z,61.54
2023-07-10T02:20:13.134Z,62.04
2023-07-10T02:21:13.130Z,60.75
2023-07-10T02:22:13.173Z,63.16
2023-07-10T02:23:13.200Z,62.64
2023-07-10T02:24:13.200Z,65.99
2023-07-10T02:25:13.199Z,63.28
2023-07-10T02:26:13.271Z,61.57
2023-07-10T02:27:13.268Z,64.49
2023-07-10T02:28:13.301Z,60.53
2023-07-10T02:29:13.338Z,63.67
2023-07-10T02:30:13.349Z,60.98
2023-07-10T02:31:13.406Z,59.63
2023-07-10T02:32:13.378Z,64.51
2023-07-10T02:33:13.407Z,61.49
2023-07-10T02:34:13.418Z,62.10
2023-07-10T02:35:13.452Z,61.68
2023-07-10T02:36:13.505Z,63.50
2023-07-10T02:37:13.516Z,61.45
2023-07-10T02:38:13.552Z,66.02
2023-07-10T02:39:13.559Z,64.96
2023-07-10T02:40:13.595Z,61.53
2023-07-10T02:41:13.646Z,68.05
2023-07-10T02:42:13.628Z,61.76
2023-07-10T02:43:13.692Z,63.67
2023-07-10T02:44:13.700Z,62.18
2023-07-10T02:45:13.717Z,64.94
2023-07-10T02:46:13.769Z,64.51
2023-07-10T02:47:13.774Z,63.72
2023-07-10T02:48:13.786Z,68.04
2023-07-10T02:49:13.813Z,64.53
2023-07-10T02:50:13.819Z,62.32
2023-07-10T02:51:13.845Z,62.65
2023-07-10T02:52:13.902Z,64.02
2023-07-10T02:53:15.509Z,65.15
2023-07-10T02:54:13.962Z,63.95
2023-07-10T02:55:13.959Z,64.42
2023-07-10T02:56:13.996Z,66.49
2023-07-10T02:57:13.997Z,68.07
2023-07-10T02:58:14.056Z,66.55
2023-07-10T02:59:14.052Z,66.27
2023-07-10T03:00:14.059Z,64.96
2023-07-10T03:01:14.157Z,64.32
2023-07-10T03:02:14.088Z,63.65
2023-07-10T03:03:14.134Z,65.80
2023-07-10T03:04:14.147Z,64.27
2023-07-10T03:05:14.254Z,67.44
2023-07-10T03:06:14.191Z,63.76
2023-07-10T03:07:14.229Z,65.02
2023-07-10T03:08:14.273Z,64.41
2023-07-10T03:09:14.274Z,67.32
2023-07-10T03:10:14.282Z,65.63
2023-07-10T03:11:14.299Z,67.35
2023-07-10T03:12:14.306Z,65.48
2023-07-10T03:13:14.343Z,64.80
2023-07-10T03:14:14.427Z,66.54
2023-07-10T03:15:14.369Z,66.40
2023-07-10T03:16:14.466Z,67.85
2023-07-10T03:17:14.419Z,66.73
2023-07-10T03:18:14.437Z,64.44
2023-07-10T03:19:14.465Z,62.84
2023-07-10T03:20:14.478Z,69.53
2023-07-10T03:21:14.522Z,66.96
2023-07-10T03:22:14.551Z,65.51
2023-07-10T03:23:14.525Z,65.05
2023-07-10T03:24:14.582Z,64.98
2023-07-10T03:25:14.633Z,66.09
2023-07-10T03:26:14.655Z,66.24
2023-07-10T03:27:14.661Z,66.92
2023-07-10T03:28:14.723Z,66.75
2023-07-10T03:29:14.748Z,66.67
2023-07-10T03:30:14.749Z,66.94
2023-07-10T03:31:14.843Z,69.39
2023-07-10T03:32:14.813Z,68.29
2023-07-10T03:33:14.839Z,65.53
2023-07-10T03:34:14.876Z,71.32
2023-07-10T03:35:14.917Z,67.71
2023-07-10T03:36:14.923Z,67.03
2023-07-10T03:37:15.009Z,68.95
2023-07-10T03:38:15.017Z,66.95
2023-07-10T03:39:15.058Z,72.92
2023-07-10T03:40:15.060Z,71.66
2023-07-10T03:41:15.093Z,67.94
2023-07-10T03:42:15.115Z,70.86
2023-07-10T03:43:15.183Z,68.87
2023-07-10T03:44:15.217Z,70.86
2023-07-10T03:45:15.212Z,69.65
2023-07-10T03:46:15.245Z,70.50
2023-07-10T03:47:15.305Z,72.59
2023-07-10T03:48:15.358Z,68.54
2023-07-10T03:49:15.338Z,68.11
2023-07-10T03:50:15.373Z,69.52
2023-07-10T03:51:15.417Z,69.83
2023-07-10T03:52:15.420Z,70.12
2023-07-10T03:53:15.476Z,69.98
2023-07-10T03:54:15.469Z,73.97
2023-07-10T03:55:15.518Z,71.17
2023-07-10T03:56:15.514Z,70.43
2023-07-10T03:57:15.569Z,69.24
2023-07-10T03:58:15.590Z,70.54
2023-07-10T03:59:15.597Z,75.17
2023-07-10T04:00:15.625Z,72.05
2023-07-10T04:01:15.704Z,69.52
2023-07-10T04:02:15.667Z,71.97
2023-07-10T04:03:15.792Z,70.71
2023-07-10T04:04:15.784Z,72.66
2023-07-10T04:05:15.772Z,68.45
2023-07-10T04:06:15.875Z,75.52
2023-07-10T04:07:15.899Z,73.40
2023-07-10T04:08:15.877Z,70.92
2023-07-10T04:09:15.971Z,74.18
2023-07-10T04:10:15.967Z,70.95
2023-07-10T04:11:15.967Z,72.81
2023-07-10T04:12:16.001Z,72.14
2023-07-10T04:13:16.035Z,72.61
2023-07-10T04:14:16.104Z,72.98
2023-07-10T04:15:16.053Z,73.40
2023-07-10T04:16:16.155Z,74.39
2023-07-10T04:17:16.158Z,72.16
2023-07-10T04:18:16.152Z,76.36
2023-07-10T04:19:16.206Z,71.62
2023-07-10T04:20:16.238Z,75.11
2023-07-10T04:21:16.249Z,74.12
2023-07-10T04:22:16.249Z,75.46
2023-07-10T04:23:16.282Z,76.68
2023-07-10T04:24:16.310Z,75.30
2023-07-10T04:25:16.392Z,72.27
2023-07-10T04:26:16.428Z,71.26
2023-07-10T04:27:16.412Z,73.34
2023-07-10T04:28:16.449Z,73.19
2023-07-10T04:29:16.510Z,73.57
2023-07-10T04:30:16.498Z,74.00
2023-07-10T04:31:16.633Z,72.88
2023-07-10T04:32:16.593Z,73.50
2023-07-10T04:33:16.614Z,75.20
2023-07-10T04:34:16.624Z,75.67
2023-07-10T04:35:16.660Z,75.48
2023-07-10T04:36:16.687Z,76.14
2023-07-10T04:37:16.685Z,76.94
2023-07-10T04:38:16.739Z,74.62
2023-07-10T04:39:16.792Z,75.78
2023-07-10T04:40:16.841Z,78.60
2023-07-10T04:41:16.832Z,77.13
2023-07-10T04:42:16.883Z,74.06
2023-07-10T04:43:16.915Z,73.82
2023-07-10T04:44:16.979Z,75.79
2023-07-10T04:45:17.026Z,74.74
2023-07-10T04:46:17.063Z,77.82
2023-07-10T04:47:17.185Z,76.73
2023-07-10T04:48:17.255Z,76.53
2023-07-10T04:49:17.138Z,73.93
2023-07-10T04:50:17.209Z,75.96
2023-07-10T04:51:17.202Z,74.81
2023-07-10T04:52:17.233Z,76.40
2023-07-10T04:53:17.255Z,79.00
2023-07-10T04:54:17.328Z,75.56
2023-07-10T04:55:17.338Z,78.48
2023-07-10T04:56:17.382Z,77.40
2023-07-10T04:57:17.384Z,76.31
2023-07-10T04:58:17.431Z,77.96
2023-07-10T04:59:17.487Z,82.23
2023-07-10T05:00:17.543Z,76.92
2023-07-10T05:01:17.518Z,76.57
2023-07-10T05:02:17.710Z,77.56
2023-07-10T05:03:17.675Z,80.13
2023-07-10T05:04:17.660Z,74.86
2023-07-10T05:05:17.615Z,72.51
2023-07-10T05:06:17.655Z,74.41
2023-07-10T05:07:17.704Z,78.49
2023-07-10T05:08:17.707Z,75.73
2023-07-10T05:09:17.761Z,75.59
2023-07-10T05:10:17.781Z,79.05
2023-07-10T05:11:17.796Z,78.77
2023-07-10T05:12:17.838Z,76.96
2023-07-10T05:13:17.881Z,74.61
2023-07-10T05:14:17.939Z,75.62
2023-07-10T05:15:17.964Z,74.04
2023-07-10T05:16:18.021Z,72.56
2023-07-10T05:17:17.981Z,73.32
2023-07-10T05:18:18.031Z,75.19
2023-07-10T05:19:18.049Z,75.53
2023-07-10T05:20:18.103Z,75.15
2023-07-10T05:21:18.112Z,75.81
2023-07-10T05:22:18.148Z,73.58
2023-07-10T05:23:18.196Z,72.67
2023-07-10T05:24:18.203Z,74.72
2023-07-10T05:25:18.245Z,72.28
2023-07-10T05:26:18.270Z,73.07
2023-07-10T05:27:18.291Z,75.13
2023-07-10T05:28:18.303Z,71.24
2023-07-10T05:29:18.367Z,71.24
2023-07-10T05:30:18.351Z,69.16
2023-07-10T05:31:18.525Z,71.95
2023-07-10T05:32:18.435Z,72.63
2023-07-10T05:33:18.459Z,69.45
2023-07-10T05:34:18.508Z,70.67
2023-07-10T05:35:18.552Z,69.64
2023-07-10T05:36:18.603Z,71.03
2023-07-10T05:37:18.630Z,72.05
2023-07-10T05:38:18.749Z,67.00
2023-07-10T05:39:18.701Z,74.52
2023-07-10T05:40:18.703Z,66.26
2023-07-10T05:41:18.766Z,64.06
2023-07-10T05:42:18.796Z,68.96
2023-07-10T05:43:18.779Z,65.32
2023-07-10T05:44:18.838Z,69.70
2023-07-10T05:45:18.871Z,68.19
2023-07-10T05:46:19.090Z,69.02
2023-07-10T05:47:18.959Z,67.31
2023-07-10T05:48:18.972Z,64.85
2023-07-10T05:49:19.003Z,73.46
2023-07-10T05:50:19.034Z,67.57
2023-07-10T05:51:19.078Z,71.27
2023-07-10T05:52:19.101Z,70.95
2023-07-10T05:53:19.155Z,70.81
2023-07-10T05:54:19.178Z,71.94
2023-07-10T05:55:19.198Z,70.00
2023-07-10T05:56:19.264Z,70.45
2023-07-10T05:57:19.305Z,68.08
2023-07-10T05:58:19.367Z,70.22
2023-07-10T05:59:19.374Z,66.73
2023-07-10T06:00:19.394Z,72.92
2023-07-10T06:01:19.429Z,71.74
2023-07-10T06:02:19.490Z,73.52
2023-07-10T06:03:19.583Z,68.99
2023-07-10T06:04:19.539Z,69.65
2023-07-10T06:05:19.552Z,67.77
2023-07-10T06:06:19.597Z,70.45
2023-07-10T06:07:19.635Z,68.92
2023-07-10T06:08:19.680Z,66.35
2023-07-10T06:09:19.711Z,67.06
2023-07-10T06:10:19.790Z,66.12
2023-07-10T06:11:19.804Z,63.83
2023-07-10T06:12:19.807Z,62.71
2023-07-10T06:13:19.852Z,62.75
2023-07-10T06:14:20.072Z,63.79
2023-07-10T06:15:19.946Z,63.12
2023-07-10T06:16:19.971Z,69.59
2023-07-10T06:17:20.009Z,69.87
2023-07-10T06:18:20.058Z,61.81
2023-07-10T06:19:20.100Z,68.76
2023-07-10T06:20:20.130Z,63.03
2023-07-10T06:21:20.173Z,65.78
2023-07-10T06:22:20.212Z,69.51
2023-07-10T06:23:20.234Z,66.41
2023-07-10T06:24:20.301Z,67.69
2023-07-10T06:25:20.343Z,67.89
2023-07-10T06:26:20.383Z,63.95
2023-07-10T06:27:20.415Z,65.53
2023-07-10T06:28:20.565Z,67.99
2023-07-10T06:29:20.514Z,70.51
2023-07-10T06:30:20.541Z,71.47
2023-07-10T06:31:20.634Z,65.56
2023-07-10T06:32:20.666Z,63.84
2023-07-10T06:33:20.667Z,68.93
2023-07-10T06:34:20.713Z,66.86
2023-07-10T06:35:20.758Z,67.95
2023-07-10T06:36:20.825Z,66.07
2023-07-10T06:37:20.822Z,68.17
2023-07-10T06:38:20.885Z,67.96
2023-07-10T06:39:20.930Z,65.59
2023-07-10T06:40:20.969Z,70.10
2023-07-10T06:41:21.016Z,65.77
2023-07-10T06:42:21.046Z,68.32
2023-07-10T06:43:21.082Z,66.90
2023-07-10T06:44:21.108Z,72.64
2023-07-10T06:45:21.137Z,72.39
2023-07-10T06:46:21.284Z,74.85
2023-07-10T06:47:21.210Z,73.75
2023-07-10T06:48:21.295Z,70.30
2023-07-10T06:49:21.347Z,75.38
2023-07-10T06:50:21.363Z,73.00
2023-07-10T06:51:21.414Z,77.88
2023-07-10T06:52:21.484Z,76.31
2023-07-10T06:53:26.441Z,75.13
2023-07-10T06:54:22.464Z,75.43
2023-07-10T06:55:21.487Z,75.83
2023-07-10T06:56:21.484Z,76.40
2023-07-10T06:57:21.431Z,76.69
2023-07-10T06:58:21.434Z,74.83
2023-07-10T06:59:21.438Z,77.98
2023-07-10T07:00:21.484Z,79.27
2023-07-10T07:01:21.490Z,80.11
2023-07-10T07:02:21.493Z,80.59
2023-07-10T07:03:21.575Z,82.87
2023-07-10T07:04:21.416Z,82.25
2023-07-10T07:05:21.419Z,85.60
2023-07-10T07:06:21.424Z,80.47
2023-07-10T07:07:23.483Z,84.68
2023-07-10T07:08:21.452Z,86.75
2023-07-10T07:09:21.379Z,86.04
2023-07-10T07:10:21.358Z,84.24
2023-07-10T07:11:21.379Z,84.28
2023-07-10T07:12:21.364Z,85.57
2023-07-10T07:13:22.340Z,83.56
2023-07-10T07:14:21.336Z,89.76
2023-07-10T07:15:21.350Z,88.01
2023-07-10T07:16:21.345Z,83.59
2023-07-10T07:17:21.391Z,83.46
2023-07-10T07:18:21.318Z,86.99
2023-07-10T07:19:21.315Z,81.35
2023-07-10T07:20:21.299Z,85.35
2023-07-10T07:21:21.329Z,85.69
2023-07-10T07:22:21.285Z,83.00
2023-07-10T07:23:21.284Z,87.23
2023-07-10T07:24:21.273Z,84.58
2023-07-10T07:25:21.276Z,88.65
2023-07-10T07:26:21.268Z,81.01
2023-07-10T07:27:21.260Z,83.73
2023-07-10T07:28:21.252Z,85.17
2023-07-10T07:29:21.247Z,84.28
2023-07-10T07:30:21.243Z,85.30
2023-07-10T07:31:21.264Z,81.95
2023-07-10T07:32:21.258Z,88.76
2023-07-10T07:33:21.261Z,83.78
2023-07-10T07:34:21.864Z,82.53
2023-07-10T07:35:21.190Z,82.71
2023-07-10T07:36:21.161Z,84.33
2023-07-10T07:37:21.184Z,83.60
2023-07-10T07:38:21.164Z,83.37
2023-07-10T07:39:21.175Z,87.11
2023-07-10T07:40:21.152Z,85.32
2023-07-10T07:41:21.145Z,85.15
2023-07-10T07:42:21.145Z,86.44
2023-07-10T07:43:21.127Z,88.12
2023-07-10T07:44:21.118Z,89.74
2023-07-10T07:45:21.130Z,88.24
2023-07-10T07:46:21.202Z,86.24
2023-07-10T07:47:21.239Z,88.93
2023-07-10T07:48:21.296Z,82.20
2023-07-10T07:49:21.231Z,83.57
2023-07-10T07:50:21.269Z,80.99
2023-07-10T07:51:21.278Z,86.10
2023-07-10T07:52:21.320Z,82.28
2023-07-10T07:53:21.321Z,87.85
2023-07-10T07:54:21.362Z,89.80
2023-07-10T07:55:21.371Z,87.86
2023-07-10T07:56:21.401Z,91.22
2023-07-10T07:57:21.417Z,86.93
2023-07-10T07:58:21.414Z,89.01
2023-07-10T07:59:21.468Z,81.82
2023-07-10T08:00:22.752Z,85.45
2023-07-10T08:01:21.504Z,86.29
2023-07-10T08:02:21.553Z,81.89
2023-07-10T08:03:21.615Z,85.49
2023-07-10T08:04:21.667Z,84.90
2023-07-10T08:05:34.334Z,81.96
2023-07-10T08:06:22.626Z,82.17
2023-07-10T08:07:21.610Z,82.40
2023-07-10T08:08:21.598Z,82.44
2023-07-10T08:09:21.601Z,82.70
2023-07-10T08:10:21.589Z,82.43
2023-07-10T08:11:21.623Z,86.74
2023-07-10T08:12:21.554Z,86.38
2023-07-10T08:13:21.571Z,85.41
2023-07-10T08:14:21.569Z,87.06
2023-07-10T08:15:21.540Z,85.38
2023-07-10T08:16:21.595Z,84.88
2023-07-10T08:17:21.587Z,90.39
2023-07-10T08:18:21.527Z,91.89
2023-07-10T08:19:21.511Z,82.91
2023-07-10T08:20:21.512Z,83.74
2023-07-10T08:21:21.557Z,85.74
2023-07-10T08:22:21.501Z,84.90
2023-07-10T08:23:21.502Z,85.23
2023-07-10T08:24:21.504Z,84.37
2023-07-10T08:25:21.502Z,83.57
2023-07-10T08:26:21.599Z,82.06
2023-07-10T08:27:21.547Z,86.14
2023-07-10T08:28:21.856Z,91.51
2023-07-10T08:29:21.608Z,83.28
2023-07-10T08:30:21.653Z,82.87
2023-07-10T08:31:21.815Z,83.25
2023-07-10T08:32:21.664Z,83.34
2023-07-10T08:33:21.696Z,83.52
2023-07-10T08:34:21.747Z,81.48
2023-07-10T08:35:21.752Z,84.15
2023-07-10T08:36:21.771Z,81.95
2023-07-10T08:37:21.815Z,78.15
2023-07-10T08:38:21.925Z,77.90
2023-07-10T08:39:21.883Z,79.49
2023-07-10T08:40:21.965Z,79.63
2023-07-10T08:41:21.937Z,80.53
2023-07-10T08:42:21.942Z,81.83
2023-07-10T08:43:22.046Z,80.99
2023-07-10T08:44:22.000Z,81.02
2023-07-10T08:45:22.031Z,81.58
2023-07-10T08:46:22.155Z,83.38
2023-07-10T08:47:22.185Z,76.07
2023-07-10T08:48:22.118Z,77.80
2023-07-10T08:49:22.146Z,77.66
2023-07-10T08:50:22.158Z,76.61
2023-07-10T08:51:22.174Z,76.05
2023-07-10T08:52:22.179Z,75.85
2023-07-10T08:53:22.232Z,80.23
2023-07-10T08:54:22.243Z,83.99
2023-07-10T08:55:22.288Z,83.69
2023-07-10T08:56:22.279Z,79.13
2023-07-10T08:57:22.323Z,84.80
2023-07-10T08:58:22.347Z,88.45
2023-07-10T08:59:22.332Z,83.57
2023-07-10T09:00:22.414Z,82.04
2023-07-10T09:01:22.429Z,81.18
2023-07-10T09:02:22.523Z,79.75
2023-07-10T09:03:22.441Z,73.51
2023-07-10T09:04:22.459Z,74.65
2023-07-10T09:05:22.485Z,76.94
2023-07-10T09:06:22.488Z,74.53
2023-07-10T09:07:22.513Z,75.55
2023-07-10T09:08:22.539Z,81.86
2023-07-10T09:09:22.553Z,81.72
2023-07-10T09:10:22.579Z,81.25
2023-07-10T09:11:22.640Z,76.30
2023-07-10T09:12:22.630Z,79.94
2023-07-10T09:13:22.645Z,85.51
2023-07-10T09:14:22.678Z,81.28
2023-07-10T09:15:22.687Z,79.49
2023-07-10T09:16:22.799Z,83.22
2023-07-10T09:17:22.780Z,80.66
2023-07-10T09:18:22.790Z,83.70
2023-07-10T09:19:22.804Z,78.63
2023-07-10T09:20:22.928Z,79.86
2023-07-10T09:21:22.835Z,81.01
2023-07-10T09:22:22.867Z,79.02
2023-07-10T09:23:22.863Z,78.83
2023-07-10T09:24:22.950Z,78.60
2023-07-10T09:25:23.005Z,76.41
2023-07-10T09:26:22.946Z,77.89
2023-07-10T09:27:22.953Z,81.19
2023-07-10T09:28:22.975Z,83.71
2023-07-10T09:29:22.989Z,87.59
2023-07-10T09:30:23.030Z,83.82
2023-07-10T09:31:23.450Z,82.91
2023-07-10T09:32:23.135Z,82.51
2023-07-10T09:33:23.093Z,83.71
2023-07-10T09:34:23.165Z,83.24
2023-07-10T09:35:23.162Z,85.86
2023-07-10T09:36:23.171Z,83.13
2023-07-10T09:37:23.162Z,84.34
2023-07-10T09:38:23.206Z,82.85
2023-07-10T09:39:23.918Z,83.04
2023-07-10T09:40:23.206Z,84.51
2023-07-10T09:41:23.262Z,85.76
2023-07-10T09:42:23.258Z,85.63
2023-07-10T09:43:23.280Z,84.59
2023-07-10T09:44:23.279Z,87.98
2023-07-10T09:45:23.334Z,88.24
2023-07-10T09:46:23.359Z,85.64
2023-07-10T09:47:23.440Z,84.42
2023-07-10T09:48:23.361Z,86.43
2023-07-10T09:49:23.392Z,85.10
2023-07-10T09:50:23.433Z,85.32
2023-07-10T09:51:23.446Z,83.35
2023-07-10T09:52:23.432Z,84.10
2023-07-10T09:53:23.441Z,90.69
2023-07-10T09:54:23.488Z,89.20
2023-07-10T09:55:23.488Z,89.66
2023-07-10T09:56:23.531Z,91.79
2023-07-10T09:57:23.522Z,96.24
2023-07-10T09:58:23.530Z,92.37
2023-07-10T09:59:23.538Z,95.13
2023-07-10T10:00:23.551Z,91.44
2023-07-10T10:01:23.544Z,91.39
2023-07-10T10:02:23.607Z,92.13
2023-07-10T10:03:23.589Z,92.87
2023-07-10T10:04:23.609Z,93.52
2023-07-10T10:05:23.562Z,94.38
2023-07-10T10:06:23.606Z,92.94
2023-07-10T10:07:23.579Z,95.55
2023-07-10T10:08:23.595Z,89.66
2023-07-10T10:09:23.618Z,97.49
2023-07-10T10:10:23.583Z,87.89
2023-07-10T10:11:23.648Z,88.30
2023-07-10T10:12:23.643Z,90.51
2023-07-10T10:13:26.469Z,88.29
2023-07-10T10:14:23.627Z,89.31
2023-07-10T10:15:23.702Z,87.59
2023-07-10T10:16:23.604Z,90.19
2023-07-10T10:17:23.672Z,89.20
2023-07-10T10:18:23.679Z,88.35
2023-07-10T10:19:23.652Z,92.96
2023-07-10T10:20:23.562Z,91.63
2023-07-10T10:21:23.603Z,89.51
2023-07-10T10:22:23.628Z,87.52
2023-07-10T10:23:23.542Z,92.14
2023-07-10T10:24:23.552Z,91.18
2023-07-10T10:25:23.530Z,91.79
2023-07-10T10:26:23.558Z,89.70
2023-07-10T10:27:23.554Z,88.81
2023-07-10T10:28:23.510Z,85.49
2023-07-10T10:29:23.532Z,81.64
2023-07-10T10:30:23.553Z,87.71
2023-07-10T10:31:23.577Z,87.21
2023-07-10T10:32:23.545Z,86.31
2023-07-10T10:33:23.484Z,83.96
2023-07-10T10:34:23.462Z,93.13
2023-07-10T10:35:23.518Z,90.10
2023-07-10T10:36:23.448Z,90.18
2023-07-10T10:37:23.450Z,90.91
2023-07-10T10:38:23.476Z,89.12
2023-07-10T10:39:23.474Z,85.20
2023-07-10T10:40:23.434Z,85.63
2023-07-10T10:41:23.438Z,87.10
2023-07-10T10:42:23.433Z,89.31
2023-07-10T10:43:23.431Z,87.51
2023-07-10T10:44:23.413Z,85.34
2023-07-10T10:45:23.421Z,82.05
2023-07-10T10:46:23.463Z,90.65
2023-07-10T10:47:23.420Z,87.31
2023-07-10T10:48:23.401Z,86.20
2023-07-10T10:49:23.365Z,80.24
2023-07-10T10:50:23.387Z,79.69
2023-07-10T10:51:23.368Z,77.12
2023-07-10T10:52:23.356Z,76.82
2023-07-10T10:53:23.356Z,81.55
2023-07-10T10:54:32.415Z,85.00
2023-07-10T10:55:24.351Z,85.34
2023-07-10T10:56:23.307Z,83.90
2023-07-10T10:57:23.342Z,82.98
2023-07-10T10:58:23.289Z,85.82
2023-07-10T10:59:23.300Z,85.14
2023-07-10T11:00:23.315Z,87.82
2023-07-10T11:01:23.427Z,87.62
2023-07-10T11:02:23.324Z,84.05
2023-07-10T11:03:23.382Z,87.10
2023-07-10T11:04:23.423Z,85.19
2023-07-10T11:05:23.288Z,84.55
2023-07-10T11:06:23.243Z,80.88
2023-07-10T11:07:23.269Z,79.82
2023-07-10T11:08:25.899Z,78.41
2023-07-10T11:09:23.237Z,78.68
2023-07-10T11:10:23.228Z,78.55
2023-07-10T11:11:23.235Z,80.50
2023-07-10T11:12:23.207Z,81.50
2023-07-10T11:13:23.242Z,85.30
2023-07-10T11:14:25.254Z,79.10
2023-07-10T11:15:23.207Z,79.50
2023-07-10T11:16:23.199Z,80.19
2023-07-10T11:17:23.275Z,79.88
2023-07-10T11:18:23.172Z,81.27
2023-07-10T11:19:23.180Z,82.00
2023-07-10T11:20:23.176Z,78.88
2023-07-10T11:21:23.154Z,81.70
2023-07-10T11:22:23.156Z,80.74
2023-07-10T11:23:23.141Z,76.82
2023-07-10T11:24:23.133Z,79.29
2023-07-10T11:25:23.127Z,80.99
2023-07-10T11:26:23.156Z,82.62
2023-07-10T11:27:23.132Z,79.44
2023-07-10T11:28:23.094Z,81.78
2023-07-10T11:29:23.103Z,81.30
2023-07-10T11:30:23.115Z,80.33
2023-07-10T11:31:23.101Z,78.24
2023-07-10T11:32:23.112Z,77.45
2023-07-10T11:33:23.086Z,77.96
2023-07-10T11:34:23.075Z,78.76
2023-07-10T11:35:23.061Z,82.28
2023-07-10T11:36:23.071Z,84.97
2023-07-10T11:37:23.052Z,82.86
2023-07-10T11:38:23.037Z,81.99
2023-07-10T11:39:23.019Z,80.04
2023-07-10T11:40:23.036Z,82.06
2023-07-10T11:41:23.017Z,80.05
2023-07-10T11:42:23.047Z,80.35
2023-07-10T11:43:23.009Z,82.34
2023-07-10T11:44:22.988Z,85.15
2023-07-10T11:45:22.995Z,85.06
2023-07-10T11:46:23.049Z,87.12
2023-07-10T11:47:23.000Z,89.77
2023-07-10T11:48:22.951Z,90.49
2023-07-10T11:49:22.938Z,90.02
2023-07-10T11:50:22.968Z,90.31
2023-07-10T11:51:22.953Z,88.56
2023-07-10T11:52:22.968Z,67.18
2023-07-10T11:53:22.944Z,84.07
2023-07-10T11:54:22.945Z,91.54
2023-07-10T11:55:22.958Z,91.46
2023-07-10T11:56:22.887Z,92.27
2023-07-10T11:57:22.890Z,95.34
2023-07-10T11:58:22.900Z,90.57
2023-07-10T11:59:22.897Z,89.04
2023-07-10T12:00:22.894Z,90.63
2023-07-10T12:01:22.946Z,94.91
2023-07-10T12:02:22.917Z,95.14
2023-07-10T12:03:22.900Z,95.60
2023-07-10T12:04:22.880Z,99.88
2023-07-10T12:05:22.867Z,96.94
2023-07-10T12:06:22.824Z,97.90
2023-07-10T12:07:22.833Z,97.04
2023-07-10T12:08:22.806Z,99.64
2023-07-10T12:09:22.811Z,97.83
2023-07-10T12:10:22.813Z,102.53
2023-07-10T12:11:22.806Z,101.84
2023-07-10T12:12:22.806Z,103.70
2023-07-10T12:13:22.826Z,103.57
2023-07-10T12:14:22.780Z,103.82
2023-07-10T12:15:22.770Z,102.02
2023-07-10T12:16:36.767Z,77.49
2023-07-10T12:17:39.409Z,78.53
2023-07-10T12:18:23.841Z,78.74
2023-07-10T12:19:22.906Z,83.37
2023-07-10T12:20:22.702Z,91.39
2023-07-10T12:21:22.771Z,102.95
2023-07-10T12:22:22.690Z,121.11
2023-07-10T12:23:22.691Z,114.89
2023-07-10T12:24:22.726Z,106.38
2023-07-10T12:25:22.722Z,114.71
2023-07-10T12:26:52.342Z,124.83
2023-07-10T12:28:26.940Z,125.15
2023-07-10T12:29:23.671Z,125.40
2023-07-10T12:30:22.665Z,125.52
2023-07-10T12:31:22.742Z,119.93
2023-07-10T12:32:22.693Z,105.76
2023-07-10T12:33:22.613Z,98.42
2023-07-10T12:34:22.638Z,107.08
2023-07-10T12:35:22.604Z,107.87
2023-07-10T12:36:22.636Z,93.75
2023-07-10T12:37:22.627Z,107.69
2023-07-10T12:38:22.665Z,97.40
2023-07-10T12:39:22.696Z,111.05
2023-07-10T12:40:22.729Z,82.38
2023-07-10T12:41:22.809Z,92.18
2023-07-10T12:42:22.817Z,110.57
2023-07-10T12:43:22.878Z,116.50
2023-07-10T12:44:22.942Z,119.11
2023-07-10T12:45:22.923Z,133.09
2023-07-10T12:46:23.053Z,122.06
2023-07-10T12:47:23.066Z,126.07
2023-07-10T12:48:23.221Z,135.55
2023-07-10T12:49:23.134Z,140.39
2023-07-10T12:50:23.217Z,109.34
2023-07-10T12:51:23.288Z,122.93
2023-07-10T12:52:23.237Z,136.00